createdAt,value
2016-08-16T00:01:17.679Z,17.24
2016-08-16T00:02:31.905Z,17.28
2016-08-16T00:03:17.660Z,17.31
2016-08-16T00:04:19.701Z,17.32
2016-08-16T00:05:16.826Z,17.30
2016-08-16T00:06:22.209Z,17.32
2016-08-16T00:07:21.778Z,17.33
2016-08-16T00:08:15.964Z,17.31
2016-08-16T00:09:17.562Z,17.28
2016-08-16T00:10:19.538Z,17.22
2016-08-16T00:11:43.106Z,17.26
2016-08-16T00:12:22.407Z,17.19
2016-08-16T00:13:20.375Z,17.08
2016-08-16T00:14:18.522Z,17.09
2016-08-16T00:15:18.254Z,17.09
2016-08-16T00:16:22.188Z,16.99
2016-08-16T00:17:22.384Z,16.99
2016-08-16T00:18:21.588Z,17.00
2016-08-16T00:19:19.766Z,17.01
2016-08-16T00:20:15.307Z,17.09
2016-08-16T00:22:17.087Z,17.21
2016-08-16T00:23:20.898Z,17.09
2016-08-16T00:24:12.572Z,17.11
2016-08-16T00:25:20.220Z,17.16
2016-08-16T00:27:11.794Z,17.27
2016-08-16T00:28:19.539Z,17.20
2016-08-16T00:29:13.306Z,17.32
2016-08-16T00:30:19.295Z,17.13
2016-08-16T00:31:16.727Z,17.14
2016-08-16T00:32:31.808Z,17.20
2016-08-16T00:34:21.886Z,17.19
2016-08-16T00:36:20.687Z,17.17
2016-08-16T00:37:21.254Z,17.19
2016-08-16T00:38:13.755Z,17.17
2016-08-16T00:39:14.777Z,17.15
2016-08-16T00:40:17.776Z,17.12
2016-08-16T00:41:14.895Z,16.95
2016-08-16T00:42:22.045Z,16.85
2016-08-16T00:43:20.534Z,16.88
2016-08-16T00:44:18.787Z,16.98
2016-08-16T00:45:14.058Z,16.95
2016-08-16T00:46:18.757Z,16.93
2016-08-16T00:47:21.472Z,17.02
2016-08-16T00:48:29.321Z,16.95
2016-08-16T00:49:23.692Z,16.98
2016-08-16T00:51:19.237Z,16.92
2016-08-16T00:52:32.090Z,16.93
2016-08-16T00:53:20.785Z,16.89
2016-08-16T00:54:21.401Z,16.86
2016-08-16T00:55:17.962Z,16.88
2016-08-16T00:56:20.563Z,16.84
2016-08-16T00:57:21.775Z,16.94
2016-08-16T00:58:20.840Z,17.04
2016-08-16T00:59:14.468Z,17.11
2016-08-16T01:00:16.999Z,17.07
2016-08-16T01:01:17.806Z,17.04
2016-08-16T01:02:17.948Z,16.92
2016-08-16T01:03:14.146Z,16.89
2016-08-16T01:04:16.325Z,16.89
2016-08-16T01:05:21.265Z,16.91
2016-08-16T01:06:15.056Z,16.88
2016-08-16T01:07:21.489Z,16.89
2016-08-16T01:08:17.591Z,16.91
2016-08-16T01:09:17.980Z,16.97
2016-08-16T01:10:17.821Z,17.05
2016-08-16T01:11:18.280Z,17.06
2016-08-16T01:12:20.810Z,17.03
2016-08-16T01:13:20.931Z,17.02
2016-08-16T01:14:21.961Z,17.03
2016-08-16T01:16:20.684Z,16.90
2016-08-16T01:17:19.656Z,16.69
2016-08-16T01:18:23.426Z,16.72
2016-08-16T01:19:20.789Z,16.70
2016-08-16T01:20:17.477Z,16.70
2016-08-16T01:21:13.280Z,16.72
2016-08-16T01:22:16.639Z,16.69
2016-08-16T01:23:21.877Z,16.71
2016-08-16T01:24:17.467Z,16.69
2016-08-16T01:25:21.017Z,16.73
2016-08-16T01:26:14.940Z,16.69
2016-08-16T01:28:22.198Z,16.76
2016-08-16T01:29:16.781Z,16.79
2016-08-16T01:30:15.377Z,16.67
2016-08-16T01:31:13.347Z,16.76
2016-08-16T01:32:23.224Z,16.79
2016-08-16T01:33:22.214Z,16.66
2016-08-16T01:34:22.380Z,16.60
2016-08-16T01:35:21.552Z,16.60
2016-08-16T01:36:16.397Z,16.66
2016-08-16T01:37:32.397Z,16.72
2016-08-16T01:38:17.314Z,16.80
2016-08-16T01:39:20.813Z,16.86
2016-08-16T01:40:18.157Z,16.79
2016-08-16T01:41:13.264Z,16.66
2016-08-16T01:42:32.852Z,16.70
2016-08-16T01:43:18.356Z,16.75
2016-08-16T01:44:20.716Z,16.74
2016-08-16T01:45:17.832Z,16.66
2016-08-16T01:46:22.550Z,16.69
2016-08-16T01:47:21.914Z,16.63
2016-08-16T01:48:20.952Z,16.58
2016-08-16T01:49:20.581Z,16.51
2016-08-16T01:50:22.051Z,16.49
2016-08-16T01:51:32.209Z,16.59
2016-08-16T01:52:13.454Z,16.66
2016-08-16T01:53:16.994Z,16.68
2016-08-16T01:54:16.302Z,16.59
2016-08-16T01:55:13.862Z,16.49
2016-08-16T01:56:21.054Z,16.43
2016-08-16T01:57:21.225Z,16.41
2016-08-16T01:58:31.969Z,16.46
2016-08-16T02:01:31.994Z,16.53
2016-08-16T02:02:17.710Z,16.58
2016-08-16T02:03:16.998Z,16.50
2016-08-16T02:05:17.168Z,16.44
2016-08-16T02:06:17.213Z,16.42
2016-08-16T02:07:18.401Z,16.55
2016-08-16T02:08:26.457Z,16.66
2016-08-16T02:09:13.697Z,16.63
2016-08-16T02:10:20.457Z,16.68
2016-08-16T02:11:18.960Z,16.67
2016-08-16T02:12:21.848Z,16.68
2016-08-16T02:13:14.928Z,16.55
2016-08-16T02:14:18.974Z,16.50
2016-08-16T02:16:16.878Z,16.43
2016-08-16T02:17:13.042Z,16.33
2016-08-16T02:18:17.178Z,16.28
2016-08-16T02:19:17.187Z,16.33
2016-08-16T02:20:13.342Z,16.39
2016-08-16T02:21:15.462Z,16.40
2016-08-16T02:22:16.678Z,16.52
2016-08-16T02:23:21.815Z,16.55
2016-08-16T02:24:13.994Z,16.47
2016-08-16T02:25:18.309Z,16.62
2016-08-16T02:26:21.504Z,16.45
2016-08-16T02:27:17.776Z,16.42
2016-08-16T02:28:12.875Z,16.41
2016-08-16T02:29:15.712Z,16.38
2016-08-16T02:30:17.759Z,16.29
2016-08-16T02:31:20.887Z,16.28
2016-08-16T02:32:21.800Z,16.26
2016-08-16T02:33:21.111Z,16.15
2016-08-16T02:34:21.237Z,16.22
2016-08-16T02:35:16.948Z,16.29
2016-08-16T02:36:16.100Z,16.37
2016-08-16T02:38:17.479Z,16.38
2016-08-16T02:40:20.923Z,16.48
2016-08-16T02:41:19.977Z,16.42
2016-08-16T02:42:21.699Z,16.39
2016-08-16T02:43:20.362Z,16.33
2016-08-16T02:44:18.973Z,16.29
2016-08-16T02:46:21.507Z,16.13
2016-08-16T02:47:26.762Z,16.12
2016-08-16T02:48:22.573Z,16.07
2016-08-16T02:49:20.788Z,16.02
2016-08-16T02:50:22.776Z,15.96
2016-08-16T02:51:21.303Z,15.92
2016-08-16T02:52:20.862Z,15.90
2016-08-16T02:53:23.189Z,15.99
2016-08-16T02:54:13.273Z,16.00
2016-08-16T02:55:21.043Z,15.96
2016-08-16T02:56:32.482Z,15.99
2016-08-16T02:57:22.816Z,15.98
2016-08-16T02:58:14.497Z,15.99
2016-08-16T02:59:20.178Z,16.08
2016-08-16T03:00:21.659Z,16.24
2016-08-16T03:01:32.661Z,16.26
2016-08-16T03:02:40.786Z,16.20
2016-08-16T03:03:12.380Z,16.10
2016-08-16T03:04:39.869Z,16.04
2016-08-16T03:05:20.983Z,15.94
2016-08-16T03:06:14.302Z,15.89
2016-08-16T03:07:21.431Z,15.94
2016-08-16T03:08:21.050Z,15.94
2016-08-16T03:09:15.988Z,15.90
2016-08-16T03:10:17.190Z,15.94
2016-08-16T03:11:13.606Z,16.01
2016-08-16T03:12:16.979Z,16.05
2016-08-16T03:13:21.414Z,16.04
2016-08-16T03:14:23.310Z,16.00
2016-08-16T03:15:21.395Z,15.93
2016-08-16T03:16:23.095Z,15.93
2016-08-16T03:17:17.311Z,15.96
2016-08-16T03:18:21.416Z,16.06
2016-08-16T03:19:17.548Z,16.09
2016-08-16T03:21:12.654Z,16.25
2016-08-16T03:22:19.918Z,16.27
2016-08-16T03:23:12.370Z,16.26
2016-08-16T03:24:14.960Z,16.18
2016-08-16T03:25:16.914Z,16.12
2016-08-16T03:26:21.983Z,16.08
2016-08-16T03:27:22.835Z,16.03
2016-08-16T03:28:19.044Z,16.01
2016-08-16T03:29:22.415Z,15.99
2016-08-16T03:30:13.861Z,15.97
2016-08-16T03:31:19.049Z,15.97
2016-08-16T03:32:22.220Z,15.96
2016-08-16T03:33:21.175Z,15.99
2016-08-16T03:34:20.126Z,15.96
2016-08-16T03:35:21.245Z,15.93
2016-08-16T03:36:21.012Z,15.93
2016-08-16T03:37:14.265Z,15.91
2016-08-16T03:38:11.408Z,15.93
2016-08-16T03:39:21.090Z,15.92
2016-08-16T03:40:21.361Z,15.89
2016-08-16T03:41:15.636Z,15.88
2016-08-16T03:42:23.398Z,15.91
2016-08-16T03:43:21.967Z,15.84
2016-08-16T03:44:24.319Z,15.82
2016-08-16T03:45:18.959Z,15.80
2016-08-16T03:46:12.256Z,15.79
2016-08-16T03:47:16.466Z,15.88
2016-08-16T03:48:21.402Z,15.86
2016-08-16T03:49:20.905Z,15.86
2016-08-16T03:50:26.604Z,15.99
2016-08-16T03:51:31.899Z,16.00
2016-08-16T03:52:13.886Z,15.99
2016-08-16T03:53:14.334Z,16.09
2016-08-16T03:54:38.158Z,15.97
2016-08-16T03:55:16.694Z,15.94
2016-08-16T03:56:20.775Z,15.88
2016-08-16T03:57:22.776Z,15.86
2016-08-16T03:58:22.013Z,15.86
2016-08-16T03:59:20.983Z,15.84
2016-08-16T04:00:21.127Z,15.81
2016-08-16T04:01:11.972Z,15.83
2016-08-16T04:03:20.827Z,15.77
2016-08-16T04:04:13.171Z,15.81
2016-08-16T04:05:21.143Z,15.72
2016-08-16T04:06:17.106Z,15.75
2016-08-16T04:08:21.223Z,15.76
2016-08-16T04:09:15.116Z,15.77
2016-08-16T04:11:17.969Z,16.08
2016-08-16T04:12:12.274Z,15.97
2016-08-16T04:13:41.173Z,15.93
2016-08-16T04:14:22.335Z,15.90
2016-08-16T04:15:20.748Z,15.99
2016-08-16T04:16:22.527Z,15.90
2016-08-16T04:17:16.684Z,15.79
2016-08-16T04:18:22.044Z,15.71
2016-08-16T04:19:12.376Z,15.72
2016-08-16T04:20:24.347Z,15.72
2016-08-16T04:24:21.042Z,15.69
2016-08-16T04:25:17.605Z,15.73
2016-08-16T04:26:21.377Z,15.83
2016-08-16T04:27:23.229Z,15.92
2016-08-16T04:28:17.927Z,16.04
2016-08-16T04:31:22.998Z,15.63
2016-08-16T04:32:21.209Z,15.59
2016-08-16T04:33:16.342Z,15.53
2016-08-16T04:34:16.632Z,15.53
2016-08-16T04:35:21.195Z,15.56
2016-08-16T04:36:21.230Z,15.59
2016-08-16T04:37:20.479Z,15.55
2016-08-16T04:39:21.113Z,15.59
2016-08-16T04:40:18.635Z,15.67
2016-08-16T04:41:13.700Z,15.69
2016-08-16T04:42:20.267Z,15.71
2016-08-16T04:43:17.255Z,15.76
2016-08-16T04:45:21.252Z,16.02
2016-08-16T04:46:16.984Z,16.02
2016-08-16T04:47:32.574Z,16.05
2016-08-16T04:48:18.759Z,16.06
2016-08-16T04:49:21.563Z,16.09
2016-08-16T04:50:23.279Z,16.01
2016-08-16T04:51:13.811Z,15.93
2016-08-16T04:52:21.951Z,15.79
2016-08-16T04:53:22.054Z,15.70
2016-08-16T04:55:19.959Z,15.66
2016-08-16T04:56:21.443Z,15.73
2016-08-16T04:57:13.320Z,15.77
2016-08-16T04:59:17.623Z,15.76
2016-08-16T05:00:15.118Z,15.77
2016-08-16T05:01:13.352Z,15.87
2016-08-16T05:02:21.266Z,15.91
2016-08-16T05:04:16.569Z,15.96
2016-08-16T05:05:30.708Z,15.99
2016-08-16T05:07:19.912Z,15.95
2016-08-16T05:08:22.146Z,15.91
2016-08-16T05:09:14.571Z,15.87
2016-08-16T05:10:14.727Z,15.87
2016-08-16T05:12:12.466Z,16.00
2016-08-16T05:13:26.415Z,16.10
2016-08-16T05:14:23.854Z,16.14
2016-08-16T05:15:19.019Z,16.14
2016-08-16T05:16:13.091Z,16.16
2016-08-16T05:17:17.561Z,16.14
2016-08-16T05:18:23.734Z,16.09
2016-08-16T05:19:21.678Z,16.09
2016-08-16T05:20:30.219Z,16.07
2016-08-16T05:21:21.342Z,16.12
2016-08-16T05:23:16.516Z,16.24
2016-08-16T05:24:21.767Z,16.23
2016-08-16T05:25:18.619Z,16.23
2016-08-16T05:26:12.748Z,16.25
2016-08-16T05:29:12.567Z,16.32
2016-08-16T05:29:23.557Z,16.36
2016-08-16T05:31:18.196Z,16.44
2016-08-16T05:32:18.695Z,16.45
2016-08-16T05:33:12.533Z,16.40
2016-08-16T05:34:38.323Z,16.41
2016-08-16T05:35:22.764Z,16.45
2016-08-16T05:36:15.236Z,16.50
2016-08-16T05:37:21.489Z,16.52
2016-08-16T05:39:19.797Z,16.53
2016-08-16T05:40:23.310Z,16.57
2016-08-16T05:41:21.413Z,16.60
2016-08-16T05:42:19.014Z,16.62
2016-08-16T05:43:23.233Z,16.63
2016-08-16T05:45:12.542Z,16.75
2016-08-16T05:46:13.066Z,16.74
2016-08-16T05:47:13.891Z,16.79
2016-08-16T05:49:32.259Z,16.87
2016-08-16T05:50:22.498Z,16.93
2016-08-16T05:52:13.550Z,17.00
2016-08-16T05:53:20.618Z,16.92
2016-08-16T05:54:22.444Z,16.94
2016-08-16T05:58:22.614Z,17.07
2016-08-16T05:59:21.205Z,17.05
2016-08-16T06:01:11.082Z,17.09
2016-08-16T06:02:20.681Z,17.15
2016-08-16T06:04:18.291Z,17.22
2016-08-16T06:05:12.604Z,17.21
2016-08-16T06:07:19.268Z,17.34
2016-08-16T06:08:11.364Z,17.32
2016-08-16T06:09:12.312Z,17.35
2016-08-16T06:11:32.003Z,17.44
2016-08-16T06:13:22.881Z,17.46
2016-08-16T06:14:23.249Z,17.50
2016-08-16T06:15:19.786Z,17.52
2016-08-16T06:17:22.935Z,17.62
2016-08-16T06:18:15.248Z,17.67
2016-08-16T06:19:22.597Z,17.71
2016-08-16T06:20:21.324Z,17.77
2016-08-16T06:21:09.347Z,17.77
2016-08-16T06:22:18.579Z,17.83
2016-08-16T06:23:22.331Z,17.88
2016-08-16T06:24:13.889Z,17.89
2016-08-16T06:25:20.468Z,17.90
2016-08-16T06:27:12.474Z,18.10
2016-08-16T06:28:12.352Z,18.11
2016-08-16T06:29:21.299Z,18.11
2016-08-16T06:31:17.041Z,18.17
2016-08-16T06:32:22.050Z,18.20
2016-08-16T06:33:22.466Z,18.27
2016-08-16T06:34:21.644Z,18.32
2016-08-16T06:35:18.987Z,18.37
2016-08-16T06:37:13.591Z,18.49
2016-08-16T06:38:09.519Z,18.57
2016-08-16T06:39:12.032Z,18.64
2016-08-16T06:40:21.200Z,18.64
2016-08-16T06:41:12.416Z,18.66
2016-08-16T06:42:13.286Z,18.68
2016-08-16T06:43:23.464Z,18.70
2016-08-16T06:45:21.939Z,18.68
2016-08-16T06:47:26.826Z,18.75
2016-08-16T06:49:23.057Z,18.75
2016-08-16T06:51:18.707Z,18.83
2016-08-16T06:53:23.189Z,18.94
2016-08-16T06:54:22.064Z,18.97
2016-08-16T06:55:21.308Z,19.01
2016-08-16T06:56:22.699Z,19.00
2016-08-16T06:57:21.404Z,19.06
2016-08-16T06:58:12.878Z,19.09
2016-08-16T07:00:20.916Z,19.14
2016-08-16T07:02:19.768Z,19.24
2016-08-16T07:03:12.708Z,19.27
2016-08-16T07:04:22.342Z,19.33
2016-08-16T07:05:21.416Z,19.33
2016-08-16T07:06:23.238Z,19.40
2016-08-16T07:07:13.243Z,19.37
2016-08-16T07:08:19.703Z,19.33
2016-08-16T07:09:21.887Z,19.37
2016-08-16T07:10:32.873Z,19.42
2016-08-16T07:11:13.016Z,19.42
2016-08-16T07:12:12.297Z,19.44
2016-08-16T07:16:14.023Z,19.51
2016-08-16T07:17:21.101Z,19.54
2016-08-16T07:18:22.765Z,19.57
2016-08-16T07:21:23.573Z,19.77
2016-08-16T07:22:20.667Z,19.79
2016-08-16T07:23:17.654Z,19.82
2016-08-16T07:24:12.864Z,19.88
2016-08-16T07:25:22.718Z,19.91
2016-08-16T07:27:14.326Z,20.01
2016-08-16T07:28:23.466Z,19.99
2016-08-16T07:30:21.795Z,20.01
2016-08-16T07:31:23.188Z,20.04
2016-08-16T07:32:21.830Z,20.05
2016-08-16T07:33:20.643Z,20.01
2016-08-16T07:34:22.428Z,20.07
2016-08-16T07:35:23.568Z,20.09
2016-08-16T07:36:12.436Z,20.13
2016-08-16T07:37:22.766Z,20.13
2016-08-16T07:38:14.514Z,20.11
2016-08-16T07:40:36.628Z,20.13
2016-08-16T07:41:12.124Z,20.13
2016-08-16T07:42:22.491Z,20.08
2016-08-16T07:44:19.516Z,20.11
2016-08-16T07:45:20.660Z,20.13
2016-08-16T07:49:17.669Z,20.18
2016-08-16T07:50:17.495Z,20.16
2016-08-16T07:51:17.683Z,20.19
2016-08-16T07:52:15.274Z,20.16
2016-08-16T07:53:12.775Z,20.20
2016-08-16T07:55:17.970Z,20.34
2016-08-16T07:56:32.731Z,20.44
2016-08-16T07:57:20.840Z,20.48
2016-08-16T07:59:12.036Z,20.51
2016-08-16T08:00:12.140Z,20.54
2016-08-16T08:02:12.184Z,20.51
2016-08-16T08:03:17.788Z,20.51
2016-08-16T08:04:17.087Z,20.51
2016-08-16T08:05:17.091Z,20.50
2016-08-16T08:06:19.451Z,20.53
2016-08-16T08:07:22.019Z,20.57
2016-08-16T08:08:21.282Z,20.60
2016-08-16T08:10:17.420Z,20.70
2016-08-16T08:11:13.026Z,20.73
2016-08-16T08:12:22.269Z,20.78
2016-08-16T08:13:21.429Z,20.81
2016-08-16T08:14:12.926Z,20.86
2016-08-16T08:15:22.208Z,20.83
2016-08-16T08:16:13.595Z,20.81
2016-08-16T08:17:16.821Z,20.94
2016-08-16T08:18:21.882Z,20.96
2016-08-16T08:19:23.052Z,20.96
2016-08-16T08:20:21.916Z,20.94
2016-08-16T08:21:22.099Z,20.91
2016-08-16T08:22:12.348Z,20.91
2016-08-16T08:23:19.540Z,20.99
2016-08-16T08:24:12.744Z,21.01
2016-08-16T08:25:20.806Z,21.06
2016-08-16T08:26:24.369Z,21.03
2016-08-16T08:27:21.886Z,20.99
2016-08-16T08:28:22.074Z,21.06
2016-08-16T08:29:22.952Z,21.08
2016-08-16T08:30:22.383Z,21.07
2016-08-16T08:31:22.236Z,21.11
2016-08-16T08:32:14.412Z,21.09
2016-08-16T08:33:50.551Z,21.07
2016-08-16T08:34:17.161Z,21.06
2016-08-16T08:35:22.552Z,21.10
2016-08-16T08:37:21.950Z,21.16
2016-08-16T08:38:12.484Z,21.17
2016-08-16T08:39:26.164Z,21.21
2016-08-16T08:40:13.515Z,21.22
2016-08-16T08:41:12.698Z,21.21
2016-08-16T08:43:20.888Z,21.27
2016-08-16T08:44:23.266Z,21.30
2016-08-16T08:45:12.926Z,21.37
2016-08-16T08:46:15.135Z,21.42
2016-08-16T08:49:13.222Z,21.39
2016-08-16T08:50:15.705Z,21.49
2016-08-16T08:51:18.695Z,21.47
2016-08-16T08:52:51.370Z,21.51
2016-08-16T08:53:15.321Z,21.47
2016-08-16T08:54:12.637Z,21.48
2016-08-16T08:55:13.357Z,21.51
2016-08-16T08:56:22.412Z,21.49
2016-08-16T08:57:12.438Z,21.49
2016-08-16T08:58:17.310Z,21.50
2016-08-16T09:00:20.880Z,21.46
2016-08-16T09:01:21.031Z,21.44
2016-08-16T09:03:13.421Z,21.39
2016-08-16T09:04:17.519Z,21.47
2016-08-16T09:05:21.128Z,21.46
2016-08-16T09:07:14.836Z,21.55
2016-08-16T09:19:22.641Z,21.78
2016-08-16T09:20:15.129Z,21.86
2016-08-16T09:21:22.816Z,21.99
2016-08-16T09:22:11.914Z,22.02
2016-08-16T09:23:13.765Z,22.09
2016-08-16T09:25:12.940Z,22.06
2016-08-16T09:26:23.357Z,22.06
2016-08-16T09:27:21.036Z,22.01
2016-08-16T09:29:20.126Z,21.93
2016-08-16T09:31:23.417Z,22.05
2016-08-16T09:32:20.561Z,22.09
2016-08-16T09:33:13.195Z,22.22
2016-08-16T09:34:13.027Z,22.15
2016-08-16T09:35:21.031Z,22.07
2016-08-16T09:36:21.745Z,22.06
2016-08-16T09:37:19.022Z,22.10
2016-08-16T09:38:18.928Z,22.08
2016-08-16T09:39:22.978Z,22.12
2016-08-16T09:40:22.329Z,22.13
2016-08-16T09:41:20.374Z,22.24
2016-08-16T09:42:17.979Z,22.18
2016-08-16T09:43:12.479Z,22.15
2016-08-16T09:44:18.967Z,22.16
2016-08-16T09:45:21.121Z,22.21
2016-08-16T09:46:17.823Z,22.26
2016-08-16T09:47:17.922Z,22.18
2016-08-16T09:48:13.761Z,22.24
2016-08-16T09:49:18.594Z,22.31
2016-08-16T09:50:18.242Z,22.24
2016-08-16T09:51:24.195Z,22.15
2016-08-16T09:52:26.396Z,22.14
2016-08-16T09:53:23.443Z,22.07
2016-08-16T09:54:24.471Z,21.97
2016-08-16T09:56:23.507Z,21.99
2016-08-16T09:57:19.605Z,22.04
2016-08-16T09:58:12.744Z,22.04
2016-08-16T09:59:22.904Z,22.17
2016-08-16T10:00:12.043Z,22.23
2016-08-16T10:01:14.179Z,22.07
2016-08-16T10:02:22.598Z,22.06
2016-08-16T10:04:18.898Z,22.21
2016-08-16T10:05:12.704Z,22.30
2016-08-16T10:06:12.637Z,22.31
2016-08-16T10:07:37.924Z,22.35
2016-08-16T10:08:19.069Z,22.31
2016-08-16T10:09:33.248Z,22.28
2016-08-16T10:10:19.049Z,22.41
2016-08-16T10:11:14.319Z,22.56
2016-08-16T10:12:13.868Z,22.62
2016-08-16T10:13:12.639Z,22.64
2016-08-16T10:14:14.629Z,22.69
2016-08-16T10:15:10.352Z,22.80
2016-08-16T10:19:23.684Z,22.95
2016-08-16T10:20:20.871Z,22.84
2016-08-16T10:21:21.021Z,22.76
2016-08-16T10:22:12.951Z,22.73
2016-08-16T10:23:33.119Z,22.72
2016-08-16T10:24:15.089Z,22.76
2016-08-16T10:25:22.913Z,22.77
2016-08-16T10:26:21.244Z,22.83
2016-08-16T10:27:22.191Z,22.90
2016-08-16T10:28:14.522Z,22.91
2016-08-16T10:29:21.936Z,23.01
2016-08-16T10:30:22.038Z,23.06
2016-08-16T10:31:12.291Z,23.04
2016-08-16T10:32:14.321Z,23.12
2016-08-16T10:33:22.873Z,23.21
2016-08-16T10:34:23.494Z,23.17
2016-08-16T10:35:22.979Z,23.19
2016-08-16T10:37:29.982Z,23.21
2016-08-16T10:38:12.382Z,23.21
2016-08-16T10:40:12.500Z,23.44
2016-08-16T10:42:12.763Z,23.48
2016-08-16T10:43:15.009Z,23.39
2016-08-16T10:44:12.474Z,23.39
2016-08-16T10:45:17.363Z,23.58
2016-08-16T10:46:21.434Z,23.59
2016-08-16T10:48:10.717Z,23.57
2016-08-16T10:49:23.059Z,23.55
2016-08-16T10:50:38.028Z,23.54
2016-08-16T10:51:20.797Z,23.39
2016-08-16T10:52:20.590Z,23.29
2016-08-16T10:53:20.586Z,23.27
2016-08-16T10:54:23.092Z,23.29
2016-08-16T10:55:20.646Z,23.19
2016-08-16T10:56:15.796Z,23.07
2016-08-16T10:57:27.586Z,23.14
2016-08-16T10:58:17.843Z,23.22
2016-08-16T10:59:21.947Z,23.17
2016-08-16T11:00:22.330Z,23.19
2016-08-16T11:01:21.053Z,23.21
2016-08-16T11:02:24.787Z,23.32
2016-08-16T11:03:13.224Z,23.48
2016-08-16T11:04:12.263Z,23.55
2016-08-16T11:05:16.288Z,23.57
2016-08-16T11:06:12.928Z,23.65
2016-08-16T11:07:16.293Z,23.64
2016-08-16T11:08:18.801Z,23.72
2016-08-16T11:09:17.641Z,23.70
2016-08-16T11:10:18.644Z,23.65
2016-08-16T11:11:11.783Z,23.51
2016-08-16T11:12:20.122Z,23.39
2016-08-16T11:13:22.243Z,23.38
2016-08-16T11:14:27.358Z,23.35
2016-08-16T11:15:13.182Z,23.29
2016-08-16T11:16:16.016Z,23.26
2016-08-16T11:17:14.171Z,23.36
2016-08-16T11:18:12.915Z,23.41
2016-08-16T11:19:13.482Z,23.47
2016-08-16T11:21:16.776Z,23.64
2016-08-16T11:22:13.787Z,23.52
2016-08-16T11:23:21.045Z,23.46
2016-08-16T11:25:17.315Z,23.42
2016-08-16T11:26:17.476Z,23.35
2016-08-16T11:27:19.420Z,23.33
2016-08-16T11:28:12.805Z,23.31
2016-08-16T11:29:14.220Z,23.34
2016-08-16T11:30:20.681Z,23.49
2016-08-16T11:31:17.478Z,23.59
2016-08-16T11:32:18.659Z,23.79
2016-08-16T11:33:13.631Z,23.90
2016-08-16T11:35:21.190Z,23.94
2016-08-16T11:36:14.889Z,23.92
2016-08-16T11:37:13.372Z,23.84
2016-08-16T11:38:21.139Z,23.85
2016-08-16T11:39:17.297Z,24.02
2016-08-16T11:40:17.186Z,24.01
2016-08-16T11:41:13.197Z,23.99
2016-08-16T11:42:21.100Z,23.91
2016-08-16T11:43:18.359Z,23.98
2016-08-16T11:44:22.488Z,24.08
2016-08-16T11:45:20.630Z,24.25
2016-08-16T11:46:12.771Z,24.32
2016-08-16T11:47:14.078Z,24.35
2016-08-16T11:48:13.464Z,24.29
2016-08-16T11:49:12.910Z,24.28
2016-08-16T11:50:16.315Z,24.41
2016-08-16T11:51:16.779Z,24.35
2016-08-16T11:52:11.375Z,24.39
2016-08-16T11:53:21.085Z,24.36
2016-08-16T11:55:22.614Z,24.56
2016-08-16T11:56:21.992Z,24.55
2016-08-16T11:57:16.718Z,24.53
2016-08-16T11:58:12.086Z,24.55
2016-08-16T11:59:24.444Z,24.66
2016-08-16T12:00:21.899Z,24.63
2016-08-16T12:01:15.925Z,24.51
2016-08-16T12:02:16.038Z,24.44
2016-08-16T12:03:13.086Z,24.52
2016-08-16T12:04:21.537Z,24.58
2016-08-16T12:06:14.276Z,24.62
2016-08-16T12:07:12.389Z,24.59
2016-08-16T12:08:12.928Z,24.51
2016-08-16T12:09:11.629Z,24.21
2016-08-16T12:10:12.604Z,23.64
2016-08-16T12:11:14.166Z,23.22
2016-08-16T12:12:13.071Z,23.14
2016-08-16T12:13:13.107Z,23.11
2016-08-16T12:14:17.900Z,23.29
2016-08-16T12:15:15.205Z,23.34
2016-08-16T12:16:13.411Z,23.33
2016-08-16T12:17:13.322Z,23.16
2016-08-16T12:18:14.186Z,23.04
2016-08-16T12:19:23.299Z,22.92
2016-08-16T12:20:12.163Z,22.88
2016-08-16T12:21:18.971Z,23.15
2016-08-16T12:22:18.120Z,22.94
2016-08-16T12:23:17.237Z,22.75
2016-08-16T12:24:13.099Z,22.68
2016-08-16T12:25:16.518Z,22.76
2016-08-16T12:26:14.971Z,23.00
2016-08-16T12:28:11.899Z,23.43
2016-08-16T12:29:12.563Z,23.47
2016-08-16T12:30:21.294Z,23.54
2016-08-16T12:31:21.074Z,23.34
2016-08-16T12:32:12.407Z,23.26
2016-08-16T12:33:18.444Z,23.29
2016-08-16T12:34:17.264Z,23.43
2016-08-16T12:35:19.949Z,23.30
2016-08-16T12:36:13.151Z,23.48
2016-08-16T12:37:14.573Z,23.30
2016-08-16T12:39:22.764Z,23.56
2016-08-16T12:40:21.089Z,23.50
2016-08-16T12:41:13.239Z,23.43
2016-08-16T12:42:21.819Z,23.92
2016-08-16T12:43:21.352Z,23.92
2016-08-16T12:44:11.674Z,24.03
2016-08-16T12:45:22.802Z,23.59
2016-08-16T12:46:12.049Z,23.59
2016-08-16T12:47:17.054Z,23.45
2016-08-16T12:48:21.973Z,23.69
2016-08-16T12:49:23.297Z,23.80
2016-08-16T12:50:16.460Z,23.99
2016-08-16T12:51:14.897Z,23.89
2016-08-16T12:52:12.932Z,23.65
2016-08-16T12:53:21.124Z,23.61
2016-08-16T12:54:17.233Z,23.58
2016-08-16T12:55:12.359Z,23.79
2016-08-16T12:56:15.073Z,24.51
2016-08-16T12:57:20.982Z,25.18
2016-08-16T12:58:32.672Z,25.49
2016-08-16T12:59:12.562Z,25.77
2016-08-16T13:00:43.046Z,25.72
2016-08-16T13:48:43.215Z,24.75
2016-08-16T13:49:19.772Z,24.64
2016-08-16T13:50:18.849Z,24.87
2016-08-16T13:51:22.617Z,24.64
2016-08-16T13:52:19.059Z,24.73
2016-08-16T13:53:19.747Z,25.85
2016-08-16T13:55:20.036Z,26.13
2016-08-16T13:56:20.285Z,26.45
2016-08-16T13:57:20.116Z,26.10
2016-08-16T13:59:19.126Z,25.57
2016-08-16T14:00:19.163Z,25.68
2016-08-16T14:01:29.403Z,25.50
2016-08-16T14:02:08.024Z,26.19
2016-08-16T14:03:07.721Z,27.03
2016-08-16T14:04:07.334Z,28.16
2016-08-16T14:05:08.024Z,31.48
2016-08-16T14:06:13.265Z,33.60
2016-08-16T14:07:07.328Z,35.60
2016-08-16T14:08:07.903Z,34.93
2016-08-16T14:09:07.557Z,35.66
2016-08-16T14:10:07.200Z,37.71
2016-08-16T14:11:09.416Z,38.46
2016-08-16T14:12:09.096Z,35.66
2016-08-16T14:13:07.087Z,33.65
2016-08-16T14:14:07.739Z,32.68
2016-08-16T14:15:19.047Z,30.44
2016-08-16T14:16:13.423Z,29.93
2016-08-16T14:17:13.276Z,29.55
2016-08-16T14:18:19.992Z,28.48
2016-08-16T14:19:22.314Z,27.75
2016-08-16T14:20:26.513Z,26.65
2016-08-16T14:21:26.266Z,26.89
2016-08-16T14:22:14.226Z,26.44
2016-08-16T14:23:12.961Z,25.78
2016-08-16T14:24:20.805Z,25.80
2016-08-16T14:25:22.606Z,26.17
2016-08-16T14:26:20.545Z,26.24
2016-08-16T14:27:11.695Z,26.15
2016-08-16T14:28:19.728Z,26.02
2016-08-16T14:29:11.711Z,26.09
2016-08-16T14:30:13.345Z,25.75
2016-08-16T14:31:12.698Z,25.70
2016-08-16T14:32:13.586Z,25.61
2016-08-16T14:33:22.098Z,25.32
2016-08-16T14:34:12.778Z,25.46
2016-08-16T14:35:11.319Z,25.79
2016-08-16T14:36:23.121Z,25.31
2016-08-16T14:37:13.897Z,25.44
2016-08-16T14:38:17.254Z,25.63
2016-08-16T14:39:15.809Z,25.75
2016-08-16T14:40:19.562Z,25.87
2016-08-16T14:41:10.659Z,25.79
2016-08-16T14:42:18.014Z,25.75
2016-08-16T14:43:10.078Z,25.22
2016-08-16T14:44:11.979Z,25.73
2016-08-16T14:45:19.384Z,25.47
2016-08-16T14:46:19.764Z,26.13
2016-08-16T14:47:20.528Z,26.32
2016-08-16T14:48:22.461Z,25.90
2016-08-16T14:49:17.803Z,26.39
2016-08-16T14:50:19.589Z,26.57
2016-08-16T14:51:18.974Z,26.08
2016-08-16T14:52:14.198Z,26.06
2016-08-16T14:53:18.310Z,25.83
2016-08-16T14:54:13.702Z,26.14
2016-08-16T14:55:11.759Z,25.84
2016-08-16T14:56:20.210Z,26.22
2016-08-16T14:57:11.204Z,26.82
2016-08-16T14:59:12.332Z,26.00
2016-08-16T15:00:12.764Z,25.88
2016-08-16T15:01:25.571Z,25.55
2016-08-16T15:02:11.780Z,25.82
2016-08-16T15:03:14.103Z,25.78
2016-08-16T15:04:10.426Z,25.43
2016-08-16T15:05:19.892Z,25.58
2016-08-16T15:06:15.845Z,25.58
2016-08-16T15:07:12.940Z,25.27
2016-08-16T15:08:20.358Z,25.44
2016-08-16T15:09:16.921Z,25.50
2016-08-16T15:10:14.002Z,25.44
2016-08-16T15:11:09.972Z,25.09
2016-08-16T15:12:20.358Z,24.94
2016-08-16T15:13:11.668Z,24.67
2016-08-16T15:14:13.811Z,24.84
2016-08-16T15:15:07.956Z,25.33
2016-08-16T15:16:08.520Z,24.78
2016-08-16T15:17:07.675Z,24.54
2016-08-16T15:18:11.909Z,24.79
2016-08-16T15:19:12.679Z,24.65
2016-08-16T15:20:08.855Z,25.11
2016-08-16T15:21:12.490Z,25.47
2016-08-16T15:22:12.109Z,25.56
2016-08-16T15:23:11.350Z,25.30
2016-08-16T15:24:14.318Z,25.08
2016-08-16T15:25:12.302Z,24.92
2016-08-16T15:26:26.785Z,25.11
2016-08-16T15:27:17.550Z,24.97
2016-08-16T15:28:22.186Z,25.27
2016-08-16T15:29:16.941Z,25.54
2016-08-16T15:30:15.621Z,25.53
2016-08-16T15:31:18.818Z,25.71
2016-08-16T15:32:19.504Z,26.28